createdAt,value
2023-02-11T00:01:21.388Z,20.17
2023-02-11T00:06:24.564Z,20.97
2023-02-11T00:11:30.779Z,19.73
2023-02-11T00:16:33.608Z,23.90
2023-02-11T00:21:36.433Z,20.60
2023-02-11T00:26:40.495Z,20.40
2023-02-11T00:31:43.445Z,20.33
2023-02-11T00:36:46.238Z,22.07
2023-02-11T00:41:52.180Z,18.10
2023-02-11T00:46:54.912Z,18.07
2023-02-11T00:51:57.706Z,17.80
2023-02-11T00:57:01.753Z,20.47
2023-02-11T01:02:04.655Z,17.57
2023-02-11T01:07:07.367Z,21.87
2023-02-11T01:12:11.482Z,23.77
2023-02-11T01:17:16.926Z,22.63
2023-02-11T01:22:19.692Z,19.33
2023-02-11T01:27:24.754Z,19.93
2023-02-11T01:32:27.593Z,20.57
2023-02-11T01:37:30.390Z,19.17
2023-02-11T01:42:34.868Z,23.40
2023-02-11T01:47:37.555Z,18.90
2023-02-11T01:52:41.027Z,21.10
2023-02-11T01:57:47.692Z,22.07
2023-02-11T02:02:55.677Z,19.93
2023-02-11T02:08:05.161Z,21.17
2023-02-11T02:13:09.292Z,20.60
2023-02-11T02:18:23.359Z,21.37
2023-02-11T02:23:39.040Z,21.57
2023-02-11T02:29:03.904Z,24.03
2023-02-11T02:34:11.059Z,18.60
2023-02-11T02:39:17.671Z,20.93
2023-02-11T02:44:21.381Z,18.73
2023-02-11T02:49:25.480Z,21.13
2023-02-11T02:54:45.667Z,19.43
2023-02-11T02:59:55.169Z,18.93
2023-02-11T03:05:04.505Z,23.03
2023-02-11T03:10:09.511Z,19.77
2023-02-11T03:15:13.342Z,18.13
2023-02-11T03:20:18.964Z,18.67
2023-02-11T03:25:22.001Z,18.27
2023-02-11T03:30:28.389Z,18.77
2023-02-11T03:35:34.382Z,20.47
2023-02-11T03:40:39.920Z,21.93
2023-02-11T03:45:42.739Z,21.50
2023-02-11T03:50:47.881Z,18.00
2023-02-11T03:55:52.131Z,19.57
2023-02-11T04:00:54.968Z,18.83
2023-02-11T04:05:59.055Z,18.33
2023-02-11T04:11:01.795Z,20.43
2023-02-11T04:16:08.848Z,20.73
2023-02-11T04:21:12.958Z,20.13
2023-02-11T04:26:15.933Z,18.30
2023-02-11T04:31:18.767Z,20.23
2023-02-11T04:36:22.900Z,21.00
2023-02-11T04:41:25.743Z,22.37
2023-02-11T04:46:28.526Z,17.43
2023-02-11T04:51:32.653Z,18.47
2023-02-11T04:56:35.522Z,19.33
2023-02-11T05:01:38.433Z,17.43
2023-02-11T05:06:42.581Z,21.90
2023-02-11T05:11:45.501Z,19.87
2023-02-11T05:16:48.337Z,19.97
2023-02-11T05:22:02.116Z,19.53
2023-02-11T05:27:05.946Z,18.50
2023-02-11T05:32:09.086Z,21.47
2023-02-11T05:37:13.201Z,19.87
2023-02-11T05:42:16.146Z,18.77
2023-02-11T05:47:18.868Z,18.73
2023-02-11T05:52:23.312Z,19.53
2023-02-11T05:57:26.005Z,22.37
2023-02-11T06:02:28.971Z,20.57
2023-02-11T06:07:33.085Z,17.47
2023-02-11T06:12:36.935Z,21.00
2023-02-11T06:17:39.615Z,23.90
2023-02-11T06:22:43.717Z,22.03
2023-02-11T06:27:46.488Z,25.23
2023-02-11T06:32:49.357Z,21.17
2023-02-11T06:37:54.158Z,22.47
2023-02-11T06:42:57.069Z,21.90
2023-02-11T06:47:59.768Z,22.80
2023-02-11T06:53:03.860Z,22.03
2023-02-11T06:58:06.554Z,20.37
2023-02-11T07:03:09.397Z,24.07
2023-02-11T07:08:13.523Z,22.57
2023-02-11T07:13:16.365Z,25.93
2023-02-11T07:18:19.370Z,23.07
2023-02-11T07:23:23.434Z,31.43
2023-02-11T07:28:26.266Z,30.10
2023-02-11T07:33:29.042Z,23.77
2023-02-11T07:38:33.900Z,27.97
2023-02-11T07:43:37.051Z,27.37
2023-02-11T07:48:39.850Z,29.97
2023-02-11T07:53:43.957Z,26.20
2023-02-11T07:58:47.049Z,28.43
2023-02-11T08:03:49.872Z,27.67
2023-02-11T08:08:54.290Z,31.33
2023-02-11T08:13:58.131Z,26.77
2023-02-11T08:19:02.237Z,26.63
2023-02-11T08:24:07.249Z,26.93
2023-02-11T08:29:12.192Z,24.07
2023-02-11T08:34:18.233Z,28.43
2023-02-11T08:39:23.213Z,29.27
2023-02-11T08:44:26.036Z,29.03
2023-02-11T08:49:30.254Z,28.67
2023-02-11T08:54:34.329Z,29.73
2023-02-11T08:59:37.055Z,27.73
2023-02-11T09:04:40.127Z,24.23
2023-02-11T09:09:44.179Z,29.23
2023-02-11T09:14:47.193Z,28.07
2023-02-11T09:19:49.883Z,23.13
2023-02-11T09:24:54.002Z,26.47
2023-02-11T09:29:56.831Z,26.10
2023-02-11T09:34:59.552Z,26.00
2023-02-11T09:40:03.990Z,25.00
2023-02-11T09:45:15.745Z,24.83
2023-02-11T09:50:23.209Z,24.77
2023-02-11T09:55:29.893Z,26.70
2023-02-11T10:00:35.080Z,23.47
2023-02-11T10:05:51.280Z,23.13
2023-02-11T10:10:58.478Z,26.63
2023-02-11T10:16:11.132Z,28.00
2023-02-11T10:21:21.063Z,25.47
2023-02-11T10:26:27.610Z,24.07
2023-02-11T10:31:37.029Z,24.37
2023-02-11T10:36:41.749Z,25.87
2023-02-11T10:41:47.719Z,22.83
2023-02-11T10:46:50.970Z,21.47
2023-02-11T10:52:14.127Z,20.83
2023-02-11T10:57:20.295Z,20.70
2023-02-11T11:02:25.118Z,23.87
2023-02-11T11:07:29.792Z,25.93
2023-02-11T11:12:42.193Z,22.10
2023-02-11T11:17:45.142Z,22.07
2023-02-11T11:22:48.620Z,23.03
2023-02-11T11:27:54.485Z,22.30
2023-02-11T11:32:57.383Z,27.43
2023-02-11T11:38:02.383Z,24.10
2023-02-11T11:43:16.539Z,22.40
2023-02-11T11:48:23.340Z,24.60
2023-02-11T11:53:30.666Z,22.77
2023-02-11T11:58:35.341Z,21.37
2023-02-11T12:04:06.847Z,19.10
2023-02-11T12:09:20.588Z,20.47
2023-02-11T12:14:40.283Z,22.03
2023-02-11T12:20:03.957Z,20.00
2023-02-11T12:25:19.471Z,20.37
2023-02-11T12:30:40.263Z,21.20
2023-02-11T12:35:49.345Z,22.17
2023-02-11T12:41:01.931Z,19.00
2023-02-11T12:46:25.839Z,21.80
2023-02-11T12:51:38.843Z,22.70
2023-02-11T12:56:46.396Z,23.70
2023-02-11T13:01:50.976Z,20.60
2023-02-11T13:06:57.284Z,23.70
2023-02-11T13:12:22.048Z,22.97
2023-02-11T13:17:29.958Z,21.67
2023-02-11T13:22:35.693Z,19.83
2023-02-11T13:27:42.671Z,19.17
2023-02-11T13:33:06.604Z,18.83
2023-02-11T13:38:21.602Z,18.93
2023-02-11T13:43:28.438Z,20.50
2023-02-11T13:48:34.928Z,19.73
2023-02-11T13:53:46.846Z,19.02
2023-02-11T13:58:50.587Z,18.13
2023-02-11T14:04:38.239Z,18.58
2023-02-11T14:09:41.305Z,19.37
2023-02-11T14:15:02.889Z,21.03
2023-02-11T14:20:36.196Z,19.10
2023-02-11T14:25:40.409Z,22.73
2023-02-11T14:30:51.949Z,20.73
2023-02-11T14:36:03.746Z,19.90
2023-02-11T14:41:08.845Z,22.67
2023-02-11T14:46:11.702Z,20.63
2023-02-11T14:51:19.584Z,20.30
2023-02-11T14:56:26.255Z,23.97
2023-02-11T15:01:32.447Z,20.67
2023-02-11T15:06:38.944Z,22.87
2023-02-11T15:11:43.399Z,22.07
2023-02-11T15:16:47.075Z,20.38
2023-02-11T15:21:51.743Z,19.23
2023-02-11T15:26:59.261Z,20.30
2023-02-11T15:32:07.331Z,17.97
2023-02-11T15:37:14.774Z,20.90
2023-02-11T15:42:19.263Z,16.90
2023-02-11T15:47:22.707Z,18.03
2023-02-11T15:52:28.281Z,19.73
2023-02-11T15:57:31.362Z,22.33
2023-02-11T16:02:36.445Z,21.07
2023-02-11T16:07:43.387Z,18.67
2023-02-11T16:12:53.024Z,21.93
2023-02-11T16:17:56.120Z,18.53
2023-02-11T16:23:01.044Z,18.87
2023-02-11T16:28:03.871Z,19.03
2023-02-11T16:33:06.719Z,19.53
2023-02-11T16:38:10.895Z,18.13
2023-02-11T16:43:13.685Z,21.60
2023-02-11T16:48:18.430Z,18.87
2023-02-11T16:53:24.153Z,17.57
2023-02-11T16:58:26.939Z,18.53
2023-02-11T17:03:30.301Z,21.13
2023-02-11T17:08:35.545Z,21.87
2023-02-11T17:13:39.468Z,25.40
2023-02-11T17:18:42.237Z,21.50
2023-02-11T17:23:46.764Z,19.53
2023-02-11T17:28:49.480Z,18.47
2023-02-11T17:33:52.240Z,20.17
2023-02-11T17:38:56.795Z,21.20
2023-02-11T17:44:00.168Z,21.40
2023-02-11T17:49:03.543Z,24.67
2023-02-11T17:54:09.345Z,25.53
2023-02-11T17:59:13.931Z,20.57
2023-02-11T18:04:18.648Z,22.77
2023-02-11T18:09:22.714Z,22.00
2023-02-11T18:14:25.637Z,23.23
2023-02-11T18:19:32.996Z,20.67
2023-02-11T18:24:37.205Z,24.70
2023-02-11T18:29:40.030Z,25.47
2023-02-11T18:34:42.930Z,24.37
2023-02-11T18:39:47.071Z,25.60
2023-02-11T18:44:50.098Z,28.27
2023-02-11T18:49:53.086Z,24.00
2023-02-11T18:54:57.176Z,27.13
2023-02-11T18:59:59.950Z,27.03
2023-02-11T19:05:02.878Z,26.10
2023-02-11T19:10:08.667Z,29.20
2023-02-11T19:15:11.478Z,31.23
2023-02-11T19:20:14.344Z,31.17
2023-02-11T19:25:18.566Z,24.53
2023-02-11T19:30:21.613Z,24.00
2023-02-11T19:35:25.041Z,26.13
2023-02-11T19:40:29.324Z,26.07
2023-02-11T19:45:32.063Z,26.00
2023-02-11T19:50:34.882Z,27.10
2023-02-11T19:55:39.074Z,26.20
2023-02-11T20:00:42.121Z,30.17
2023-02-11T20:05:47.746Z,25.10
2023-02-11T20:10:51.983Z,28.47
2023-02-11T20:15:55.209Z,29.83
2023-02-11T20:21:00.143Z,26.93
2023-02-11T20:26:08.674Z,26.27
2023-02-11T20:31:12.584Z,29.47
2023-02-11T20:36:16.917Z,30.70
2023-02-11T20:41:22.795Z,25.17
2023-02-11T20:46:27.258Z,25.53
2023-02-11T20:51:31.519Z,28.30
2023-02-11T20:56:37.703Z,27.77
2023-02-11T21:01:43.230Z,29.30
2023-02-11T21:06:48.157Z,27.57
2023-02-11T21:11:53.280Z,27.93
2023-02-11T21:16:56.341Z,24.93
2023-02-11T21:22:00.694Z,24.33
2023-02-11T21:27:04.857Z,22.80
2023-02-11T21:32:07.653Z,25.93
2023-02-11T21:37:10.454Z,31.83
2023-02-11T21:42:14.666Z,23.30
2023-02-11T21:47:17.546Z,27.00
2023-02-11T21:52:20.628Z,27.73
2023-02-11T21:57:24.852Z,27.23
2023-02-11T22:02:27.765Z,26.73
2023-02-11T22:07:30.745Z,22.53
2023-02-11T22:12:34.835Z,25.37
2023-02-11T22:17:37.702Z,25.90
2023-02-11T22:22:40.532Z,25.20
2023-02-11T22:27:44.674Z,25.70
2023-02-11T22:32:47.454Z,24.80
2023-02-11T22:37:50.214Z,26.10
2023-02-11T22:42:54.529Z,26.07
2023-02-11T22:47:57.226Z,26.57
2023-02-11T22:53:00.053Z,27.53
2023-02-11T22:58:04.363Z,26.43
2023-02-11T23:03:08.483Z,24.30
2023-02-11T23:08:12.406Z,24.13
2023-02-11T23:13:16.726Z,25.57
2023-02-11T23:18:19.447Z,21.50
2023-02-11T23:23:22.202Z,23.53
2023-02-11T23:28:26.382Z,24.60
2023-02-11T23:33:29.211Z,26.67
2023-02-11T23:38:31.931Z,28.63
2023-02-11T23:43:36.248Z,25.07
2023-02-11T23:48:40.422Z,26.77
2023-02-11T23:53:43.378Z,27.83
2023-02-11T23:58:48.853Z,23.53
